sensor_id;sensor_type;location;lat;lon;timestamp;P1;durP1;ratioP1;P2;durP2;ratioP2
4307;SDS011;2167;53.448;9.984;2023-03-01T03:00:52;2.10;;;1.13;;
4307;SDS011;2167;53.448;9.984;2023-03-01T03:03:19;1.37;;;1.20;;
4307;SDS011;2167;53.448;9.984;2023-03-01T03:05:45;1.60;;;1.50;;
4307;SDS011;2167;53.448;9.984;2023-03-01T03:08:11;2.10;;;1.17;;
4307;SDS011;2167;53.448;9.984;2023-03-01T03:10:38;2.23;;;1.70;;
4307;SDS011;2167;53.448;9.984;2023-03-01T03:13:06;1.40;;;1.33;;
4307;SDS011;2167;53.448;9.984;2023-03-01T03:15:34;2.33;;;1.50;;
4307;SDS011;2167;53.448;9.984;2023-03-01T03:18:01;1.23;;;1.13;;
4307;SDS011;2167;53.448;9.984;2023-03-01T03:20:29;1.33;;;1.03;;
4307;SDS011;2167;53.448;9.984;2023-03-01T03:22:55;0.70;;;0.70;;
4307;SDS011;2167;53.448;9.984;2023-03-01T03:25:23;0.53;;;0.50;;
4307;SDS011;2167;53.448;9.984;2023-03-01T03:27:49;1.20;;;0.90;;
4307;SDS011;2167;53.448;9.984;2023-03-01T03:30:21;0.93;;;0.67;;
4307;SDS011;2167;53.448;9.984;2023-03-01T03:32:49;1.57;;;0.97;;
4307;SDS011;2167;53.448;9.984;2023-03-01T03:35:27;3.77;;;1.20;;
4307;SDS011;2167;53.448;9.984;2023-03-01T03:37:55;0.67;;;0.67;;
4307;SDS011;2167;53.448;9.984;2023-03-01T03:40:29;0.80;;;0.80;;
4307;SDS011;2167;53.448;9.984;2023-03-01T03:42:56;0.50;;;0.50;;
4307;SDS011;2167;53.448;9.984;2023-03-01T03:45:22;0.70;;;0.70;;
4307;SDS011;2167;53.448;9.984;2023-03-01T03:47:47;1.00;;;0.90;;
4307;SDS011;2167;53.448;9.984;2023-03-01T03:50:14;0.73;;;0.73;;
4307;SDS011;2167;53.448;9.984;2023-03-01T03:52:40;0.67;;;0.67;;
4307;SDS011;2167;53.448;9.984;2023-03-01T03:55:07;0.83;;;0.83;;
4307;SDS011;2167;53.448;9.984;2023-03-01T03:57:37;1.53;;;1.43;;
4307;SDS011;2167;53.448;9.984;2023-03-01T04:00:04;0.70;;;0.70;;
4307;SDS011;2167;53.448;9.984;2023-03-01T04:02:38;0.50;;;0.50;;
4307;SDS011;2167;53.448;9.984;2023-03-01T04:05:05;1.70;;;1.30;;
4307;SDS011;2167;53.448;9.984;2023-03-01T04:07:31;1.83;;;1.13;;
4307;SDS011;2167;53.448;9.984;2023-03-01T04:09:57;1.53;;;1.07;;
4307;SDS011;2167;53.448;9.984;2023-03-01T04:12:22;1.60;;;1.10;;
4307;SDS011;2167;53.448;9.984;2023-03-01T04:14:48;1.03;;;0.80;;
4307;SDS011;2167;53.448;9.984;2023-03-01T04:17:13;2.00;;;1.43;;
4307;SDS011;2167;53.448;9.984;2023-03-01T04:19:39;2.60;;;1.40;;
4307;SDS011;2167;53.448;9.984;2023-03-01T04:22:05;2.27;;;1.90;;
4307;SDS011;2167;53.448;9.984;2023-03-01T04:24:34;2.03;;;1.00;;
4307;SDS011;2167;53.448;9.984;2023-03-01T04:27:00;5.03;;;1.70;;
4307;SDS011;2167;53.448;9.984;2023-03-01T04:29:26;3.77;;;1.03;;
4307;SDS011;2167;53.448;9.984;2023-03-01T04:31:52;1.80;;;1.10;;
4307;SDS011;2167;53.448;9.984;2023-03-01T04:34:17;1.13;;;1.03;;
4307;SDS011;2167;53.448;9.984;2023-03-01T04:36:43;0.77;;;0.73;;
4307;SDS011;2167;53.448;9.984;2023-03-01T04:39:09;1.50;;;1.40;;
4307;SDS011;2167;53.448;9.984;2023-03-01T04:41:38;2.00;;;1.57;;
4307;SDS011;2167;53.448;9.984;2023-03-01T04:44:05;1.83;;;0.90;;
4307;SDS011;2167;53.448;9.984;2023-03-01T04:46:31;1.90;;;1.50;;
4307;SDS011;2167;53.448;9.984;2023-03-01T04:48:57;0.90;;;0.90;;
4307;SDS011;2167;53.448;9.984;2023-03-01T04:51:23;2.30;;;1.17;;
4307;SDS011;2167;53.448;9.984;2023-03-01T04:53:48;1.47;;;0.80;;
4307;SDS011;2167;53.448;9.984;2023-03-01T04:56:14;2.30;;;1.20;;
4307;SDS011;2167;53.448;9.984;2023-03-01T04:58:42;0.73;;;0.70;;
4307;SDS011;2167;53.448;9.984;2023-03-01T05:01:10;0.87;;;0.87;;
4307;SDS011;2167;53.448;9.984;2023-03-01T05:03:43;0.80;;;0.80;;
4307;SDS011;2167;53.448;9.984;2023-03-01T05:06:10;0.43;;;0.43;;
4307;SDS011;2167;53.448;9.984;2023-03-01T05:08:37;0.80;;;0.80;;
4307;SDS011;2167;53.448;9.984;2023-03-01T05:11:03;0.77;;;0.70;;
4307;SDS011;2167;53.448;9.984;2023-03-01T05:13:30;1.67;;;1.27;;
4307;SDS011;2167;53.448;9.984;2023-03-01T05:15:57;2.70;;;1.80;;
4307;SDS011;2167;53.448;9.984;2023-03-01T05:18:25;1.00;;;1.00;;
4307;SDS011;2167;53.448;9.984;2023-03-01T05:20:52;1.70;;;1.33;;
4307;SDS011;2167;53.448;9.984;2023-03-01T05:23:24;3.50;;;1.70;;
4307;SDS011;2167;53.448;9.984;2023-03-01T05:25:50;1.53;;;1.50;;
4307;SDS011;2167;53.448;9.984;2023-03-01T05:28:17;2.90;;;1.13;;
4307;SDS011;2167;53.448;9.984;2023-03-01T05:30:45;0.77;;;0.73;;
4307;SDS011;2167;53.448;9.984;2023-03-01T05:33:11;1.00;;;0.90;;
4307;SDS011;2167;53.448;9.984;2023-03-01T05:35:41;1.40;;;1.20;;
4307;SDS011;2167;53.448;9.984;2023-03-01T05:38:07;1.17;;;1.00;;
4307;SDS011;2167;53.448;9.984;2023-03-01T05:40:34;3.37;;;1.30;;
4307;SDS011;2167;53.448;9.984;2023-03-01T05:43:00;2.03;;;1.93;;
4307;SDS011;2167;53.448;9.984;2023-03-01T05:45:26;2.83;;;1.80;;
4307;SDS011;2167;53.448;9.984;2023-03-01T05:47:53;2.67;;;1.50;;
4307;SDS011;2167;53.448;9.984;2023-03-01T05:50:24;2.20;;;1.17;;
4307;SDS011;2167;53.448;9.984;2023-03-01T05:53:02;1.27;;;1.03;;
4307;SDS011;2167;53.448;9.984;2023-03-01T05:55:30;2.97;;;1.50;;
4307;SDS011;2167;53.448;9.984;2023-03-01T05:57:59;1.40;;;1.30;;
4307;SDS011;2167;53.448;9.984;2023-03-01T06:00:27;5.00;;;2.30;;
4307;SDS011;2167;53.448;9.984;2023-03-01T06:02:53;4.83;;;2.27;;
4307;SDS011;2167;53.448;9.984;2023-03-01T06:05:20;3.55;;;2.13;;
4307;SDS011;2167;53.448;9.984;2023-03-01T06:07:46;2.93;;;2.40;;
4307;SDS011;2167;53.448;9.984;2023-03-01T06:10:12;1.73;;;1.63;;
4307;SDS011;2167;53.448;9.984;2023-03-01T06:12:38;3.20;;;1.57;;
4307;SDS011;2167;53.448;9.984;2023-03-01T06:15:06;1.80;;;1.40;;
4307;SDS011;2167;53.448;9.984;2023-03-01T06:17:35;1.57;;;1.40;;
4307;SDS011;2167;53.448;9.984;2023-03-01T06:20:10;3.70;;;1.10;;
4307;SDS011;2167;53.448;9.984;2023-03-01T06:22:37;5.50;;;2.42;;
4307;SDS011;2167;53.448;9.984;2023-03-01T06:25:04;2.03;;;1.67;;
4307;SDS011;2167;53.448;9.984;2023-03-01T06:27:30;2.60;;;1.43;;
4307;SDS011;2167;53.448;9.984;2023-03-01T06:29:56;6.83;;;1.40;;
4307;SDS011;2167;53.448;9.984;2023-03-01T06:32:21;5.50;;;1.60;;
4307;SDS011;2167;53.448;9.984;2023-03-01T06:34:47;1.57;;;1.50;;
4307;SDS011;2167;53.448;9.984;2023-03-01T06:37:13;5.73;;;2.50;;
4307;SDS011;2167;53.448;9.984;2023-03-01T06:39:38;4.20;;;1.70;;
4307;SDS011;2167;53.448;9.984;2023-03-01T06:42:04;2.50;;;1.30;;
4307;SDS011;2167;53.448;9.984;2023-03-01T06:44:30;1.80;;;1.60;;
4307;SDS011;2167;53.448;9.984;2023-03-01T06:46:55;4.20;;;2.03;;
4307;SDS011;2167;53.448;9.984;2023-03-01T06:49:22;5.27;;;2.40;;
4307;SDS011;2167;53.448;9.984;2023-03-01T06:51:48;2.90;;;1.57;;
4307;SDS011;2167;53.448;9.984;2023-03-01T06:54:13;3.90;;;2.60;;
4307;SDS011;2167;53.448;9.984;2023-03-01T06:56:39;3.13;;;2.90;;
4307;SDS011;2167;53.448;9.984;2023-03-01T06:59:04;2.30;;;2.17;;
4307;SDS011;2167;53.448;9.984;2023-03-01T07:01:30;2.93;;;1.53;;
4307;SDS011;2167;53.448;9.984;2023-03-01T07:03:56;2.90;;;2.03;;
4307;SDS011;2167;53.448;9.984;2023-03-01T07:06:22;2.40;;;1.73;;
4307;SDS011;2167;53.448;9.984;2023-03-01T07:08:48;3.83;;;1.60;;
4307;SDS011;2167;53.448;9.984;2023-03-01T07:11:14;1.70;;;1.60;;
4307;SDS011;2167;53.448;9.984;2023-03-01T07:13:40;4.80;;;2.07;;
4307;SDS011;2167;53.448;9.984;2023-03-01T07:16:06;3.53;;;1.43;;
4307;SDS011;2167;53.448;9.984;2023-03-01T07:18:32;2.17;;;1.30;;
4307;SDS011;2167;53.448;9.984;2023-03-01T07:21:03;3.90;;;3.03;;
4307;SDS011;2167;53.448;9.984;2023-03-01T07:23:30;2.23;;;1.67;;
4307;SDS011;2167;53.448;9.984;2023-03-01T07:25:55;2.00;;;1.20;;
4307;SDS011;2167;53.448;9.984;2023-03-01T07:28:24;4.60;;;1.33;;
4307;SDS011;2167;53.448;9.984;2023-03-01T07:30:50;1.73;;;1.60;;
4307;SDS011;2167;53.448;9.984;2023-03-01T07:33:16;2.40;;;1.77;;
4307;SDS011;2167;53.448;9.984;2023-03-01T07:35:41;3.50;;;1.80;;
4307;SDS011;2167;53.448;9.984;2023-03-01T07:38:09;8.23;;;2.40;;
4307;SDS011;2167;53.448;9.984;2023-03-01T07:40:35;1.92;;;1.83;;
4307;SDS011;2167;53.448;9.984;2023-03-01T07:43:01;3.00;;;2.33;;
4307;SDS011;2167;53.448;9.984;2023-03-01T07:45:27;2.43;;;1.97;;
4307;SDS011;2167;53.448;9.984;2023-03-01T07:47:53;2.83;;;1.80;;
4307;SDS011;2167;53.448;9.984;2023-03-01T07:50:20;2.93;;;2.03;;
4307;SDS011;2167;53.448;9.984;2023-03-01T07:52:47;1.90;;;1.37;;
4307;SDS011;2167;53.448;9.984;2023-03-01T07:55:13;6.17;;;3.27;;
4307;SDS011;2167;53.448;9.984;2023-03-01T07:57:40;5.03;;;2.90;;
4307;SDS011;2167;53.448;9.984;2023-03-01T08:00:06;2.43;;;1.57;;
4307;SDS011;2167;53.448;9.984;2023-03-01T08:02:33;7.63;;;2.07;;
4307;SDS011;2167;53.448;9.984;2023-03-01T08:04:58;3.73;;;1.97;;
4307;SDS011;2167;53.448;9.984;2023-03-01T08:07:24;1.77;;;1.17;;
4307;SDS011;2167;53.448;9.984;2023-03-01T08:09:49;3.77;;;3.10;;
4307;SDS011;2167;53.448;9.984;2023-03-01T08:12:15;2.70;;;2.30;;
4307;SDS011;2167;53.448;9.984;2023-03-01T08:14:43;3.50;;;2.23;;
4307;SDS011;2167;53.448;9.984;2023-03-01T08:17:09;2.87;;;2.13;;
4307;SDS011;2167;53.448;9.984;2023-03-01T08:19:34;3.90;;;2.20;;
4307;SDS011;2167;53.448;9.984;2023-03-01T08:22:03;3.60;;;2.20;;
4307;SDS011;2167;53.448;9.984;2023-03-01T08:24:29;2.67;;;1.63;;
4307;SDS011;2167;53.448;9.984;2023-03-01T08:26:54;2.97;;;2.10;;
4307;SDS011;2167;53.448;9.984;2023-03-01T08:29:20;2.60;;;2.40;;
4307;SDS011;2167;53.448;9.984;2023-03-01T08:31:46;2.60;;;2.00;;
4307;SDS011;2167;53.448;9.984;2023-03-01T08:34:14;6.43;;;2.33;;
4307;SDS011;2167;53.448;9.984;2023-03-01T08:36:41;3.77;;;3.20;;
4307;SDS011;2167;53.448;9.984;2023-03-01T08:39:09;11.97;;;2.33;;
4307;SDS011;2167;53.448;9.984;2023-03-01T08:41:37;3.70;;;2.30;;
4307;SDS011;2167;53.448;9.984;2023-03-01T08:44:03;3.80;;;2.75;;
4307;SDS011;2167;53.448;9.984;2023-03-01T08:46:30;8.93;;;3.03;;
4307;SDS011;2167;53.448;9.984;2023-03-01T08:48:57;5.73;;;2.60;;
4307;SDS011;2167;53.448;9.984;2023-03-01T08:51:23;5.10;;;2.87;;
4307;SDS011;2167;53.448;9.984;2023-03-01T08:53:49;8.40;;;3.50;;
4307;SDS011;2167;53.448;9.984;2023-03-01T08:56:16;6.20;;;2.57;;
4307;SDS011;2167;53.448;9.984;2023-03-01T08:58:44;8.20;;;4.18;;
4307;SDS011;2167;53.448;9.984;2023-03-01T09:01:11;6.07;;;3.37;;
4307;SDS011;2167;53.448;9.984;2023-03-01T09:03:38;5.00;;;3.40;;
4307;SDS011;2167;53.448;9.984;2023-03-01T09:06:05;5.97;;;3.07;;
4307;SDS011;2167;53.448;9.984;2023-03-01T09:08:34;9.23;;;5.13;;
4307;SDS011;2167;53.448;9.984;2023-03-01T09:11:04;4.30;;;3.90;;
4307;SDS011;2167;53.448;9.984;2023-03-01T09:13:31;8.55;;;4.60;;
4307;SDS011;2167;53.448;9.984;2023-03-01T09:15:57;11.23;;;5.45;;
4307;SDS011;2167;53.448;9.984;2023-03-01T09:18:23;8.90;;;4.70;;
4307;SDS011;2167;53.448;9.984;2023-03-01T09:20:49;5.50;;;3.63;;
4307;SDS011;2167;53.448;9.984;2023-03-01T09:23:15;7.87;;;5.23;;
4307;SDS011;2167;53.448;9.984;2023-03-01T09:25:40;5.93;;;4.47;;
4307;SDS011;2167;53.448;9.984;2023-03-01T09:28:06;7.43;;;4.50;;
4307;SDS011;2167;53.448;9.984;2023-03-01T09:30:32;8.07;;;4.80;;
4307;SDS011;2167;53.448;9.984;2023-03-01T09:32:57;7.13;;;4.70;;
4307;SDS011;2167;53.448;9.984;2023-03-01T09:35:23;11.03;;;4.73;;
4307;SDS011;2167;53.448;9.984;2023-03-01T09:37:49;8.47;;;3.90;;
4307;SDS011;2167;53.448;9.984;2023-03-01T09:40:16;7.40;;;4.70;;
4307;SDS011;2167;53.448;9.984;2023-03-01T09:43:27;9.40;;;5.70;;
4307;SDS011;2167;53.448;9.984;2023-03-01T09:45:58;7.33;;;5.07;;
4307;SDS011;2167;53.448;9.984;2023-03-01T09:48:27;7.80;;;4.33;;
4307;SDS011;2167;53.448;9.984;2023-03-01T09:50:58;14.53;;;5.40;;
4307;SDS011;2167;53.448;9.984;2023-03-01T09:53:29;5.20;;;4.40;;
4307;SDS011;2167;53.448;9.984;2023-03-01T10:06:36;7.53;;;6.40;;
4307;SDS011;2167;53.448;9.984;2023-03-01T10:09:10;8.43;;;4.63;;
4307;SDS011;2167;53.448;9.984;2023-03-01T10:11:47;11.50;;;6.10;;
4307;SDS011;2167;53.448;9.984;2023-03-01T10:14:33;7.17;;;4.77;;
4307;SDS011;2167;53.448;9.984;2023-03-01T10:17:31;15.13;;;5.97;;
4307;SDS011;2167;53.448;9.984;2023-03-01T10:20:58;11.20;;;6.13;;
4307;SDS011;2167;53.448;9.984;2023-03-01T10:23:18;7.50;;;5.67;;
4307;SDS011;2167;53.448;9.984;2023-03-01T10:26:03;8.03;;;5.20;;
4307;SDS011;2167;53.448;9.984;2023-03-01T10:31:23;7.97;;;5.50;;
4307;SDS011;2167;53.448;9.984;2023-03-01T10:33:53;8.53;;;5.53;;
4307;SDS011;2167;53.448;9.984;2023-03-01T10:36:20;8.43;;;5.60;;
4307;SDS011;2167;53.448;9.984;2023-03-01T10:38:53;10.27;;;6.40;;
4307;SDS011;2167;53.448;9.984;2023-03-01T10:41:22;8.30;;;6.10;;
4307;SDS011;2167;53.448;9.984;2023-03-01T10:43:56;12.77;;;6.47;;
4307;SDS011;2167;53.448;9.984;2023-03-01T10:46:25;7.90;;;6.30;;
4307;SDS011;2167;53.448;9.984;2023-03-01T10:51:48;15.30;;;6.07;;
4307;SDS011;2167;53.448;9.984;2023-03-01T10:54:16;9.00;;;5.40;;
4307;SDS011;2167;53.448;9.984;2023-03-01T10:56:57;8.50;;;5.27;;
4307;SDS011;2167;53.448;9.984;2023-03-01T10:59:31;16.10;;;7.77;;
4307;SDS011;2167;53.448;9.984;2023-03-01T11:05:31;7.47;;;5.87;;
4307;SDS011;2167;53.448;9.984;2023-03-01T11:07:46;11.70;;;5.83;;
4307;SDS011;2167;53.448;9.984;2023-03-01T11:10:15;19.73;;;6.03;;
4307;SDS011;2167;53.448;9.984;2023-03-01T11:12:46;11.50;;;6.60;;
4307;SDS011;2167;53.448;9.984;2023-03-01T11:15:22;14.80;;;9.60;;
4307;SDS011;2167;53.448;9.984;2023-03-01T11:17:53;13.70;;;7.63;;
4307;SDS011;2167;53.448;9.984;2023-03-01T11:20:24;13.80;;;6.57;;
4307;SDS011;2167;53.448;9.984;2023-03-01T11:22:55;11.60;;;6.63;;
4307;SDS011;2167;53.448;9.984;2023-03-01T11:25:31;9.57;;;7.60;;
4307;SDS011;2167;53.448;9.984;2023-03-01T11:28:05;10.13;;;7.13;;
4307;SDS011;2167;53.448;9.984;2023-03-01T11:38:55;10.50;;;6.63;;
4307;SDS011;2167;53.448;9.984;2023-03-01T11:41:21;10.63;;;6.50;;
4307;SDS011;2167;53.448;9.984;2023-03-01T11:44:01;9.40;;;6.63;;
4307;SDS011;2167;53.448;9.984;2023-03-01T11:46:48;8.23;;;5.73;;
4307;SDS011;2167;53.448;9.984;2023-03-01T11:49:49;11.40;;;6.77;;
4307;SDS011;2167;53.448;9.984;2023-03-01T11:52:30;13.20;;;7.00;;
4307;SDS011;2167;53.448;9.984;2023-03-01T11:55:36;12.83;;;6.40;;
4307;SDS011;2167;53.448;9.984;2023-03-01T11:58:18;9.97;;;5.13;;
4307;SDS011;2167;53.448;9.984;2023-03-01T12:11:39;10.10;;;6.53;;
4307;SDS011;2167;53.448;9.984;2023-03-01T12:19:26;11.33;;;6.30;;
4307;SDS011;2167;53.448;9.984;2023-03-01T12:25:04;8.87;;;5.37;;
4307;SDS011;2167;53.448;9.984;2023-03-01T12:35:47;9.27;;;6.13;;
4307;SDS011;2167;53.448;9.984;2023-03-01T12:38:40;15.10;;;6.70;;
4307;SDS011;2167;53.448;9.984;2023-03-01T12:44:03;17.27;;;7.60;;
4307;SDS011;2167;53.448;9.984;2023-03-01T12:49:45;9.83;;;4.97;;
4307;SDS011;2167;53.448;9.984;2023-03-01T12:52:42;11.87;;;6.30;;
4307;SDS011;2167;53.448;9.984;2023-03-01T13:03:38;8.37;;;5.20;;
4307;SDS011;2167;53.448;9.984;2023-03-01T13:06:32;10.77;;;5.40;;
4307;SDS011;2167;53.448;9.984;2023-03-01T13:09:09;9.40;;;5.70;;
4307;SDS011;2167;53.448;9.984;2023-03-01T13:11:42;10.10;;;5.80;;
4307;SDS011;2167;53.448;9.984;2023-03-01T13:16:47;9.50;;;6.57;;
4307;SDS011;2167;53.448;9.984;2023-03-01T13:19:21;18.50;;;5.67;;
4307;SDS011;2167;53.448;9.984;2023-03-01T13:21:49;11.10;;;5.20;;
4307;SDS011;2167;53.448;9.984;2023-03-01T13:24:34;11.40;;;4.87;;
4307;SDS011;2167;53.448;9.984;2023-03-01T13:29:45;8.77;;;4.70;;
4307;SDS011;2167;53.448;9.984;2023-03-01T13:32:26;11.85;;;5.32;;
4307;SDS011;2167;53.448;9.984;2023-03-01T13:35:03;9.87;;;5.10;;
4307;SDS011;2167;53.448;9.984;2023-03-01T13:37:38;9.37;;;5.10;;
4307;SDS011;2167;53.448;9.984;2023-03-01T13:40:07;9.53;;;4.20;;
4307;SDS011;2167;53.448;9.984;2023-03-01T13:43:31;6.60;;;3.87;;
4307;SDS011;2167;53.448;9.984;2023-03-01T13:46:07;5.93;;;3.40;;
4307;SDS011;2167;53.448;9.984;2023-03-01T13:48:41;11.75;;;5.18;;
4307;SDS011;2167;53.448;9.984;2023-03-01T13:51:09;7.67;;;4.50;;
4307;SDS011;2167;53.448;9.984;2023-03-01T13:53:39;5.93;;;3.60;;
4307;SDS011;2167;53.448;9.984;2023-03-01T13:56:10;6.90;;;4.03;;
4307;SDS011;2167;53.448;9.984;2023-03-01T13:58:48;7.23;;;4.70;;
4307;SDS011;2167;53.448;9.984;2023-03-01T14:01:24;5.77;;;3.37;;
4307;SDS011;2167;53.448;9.984;2023-03-01T14:03:51;8.50;;;5.05;;
4307;SDS011;2167;53.448;9.984;2023-03-01T14:06:21;7.93;;;4.63;;
4307;SDS011;2167;53.448;9.984;2023-03-01T14:08:50;8.80;;;4.77;;
4307;SDS011;2167;53.448;9.984;2023-03-01T14:17:04;11.47;;;4.80;;
4307;SDS011;2167;53.448;9.984;2023-03-01T14:19:58;7.90;;;5.00;;
4307;SDS011;2167;53.448;9.984;2023-03-01T14:22:33;4.33;;;3.87;;
4307;SDS011;2167;53.448;9.984;2023-03-01T14:25:02;9.00;;;3.37;;
4307;SDS011;2167;53.448;9.984;2023-03-01T14:27:59;12.07;;;4.30;;
4307;SDS011;2167;53.448;9.984;2023-03-01T14:30:37;8.53;;;3.77;;
4307;SDS011;2167;53.448;9.984;2023-03-01T14:33:29;7.10;;;4.57;;
4307;SDS011;2167;53.448;9.984;2023-03-01T14:38:31;18.57;;;5.37;;
4307;SDS011;2167;53.448;9.984;2023-03-01T14:41:09;9.67;;;5.30;;
4307;SDS011;2167;53.448;9.984;2023-03-01T14:43:40;6.73;;;3.13;;
4307;SDS011;2167;53.448;9.984;2023-03-01T14:49:11;10.70;;;5.47;;
4307;SDS011;2167;53.448;9.984;2023-03-01T14:51:41;7.87;;;4.83;;
4307;SDS011;2167;53.448;9.984;2023-03-01T14:54:21;6.47;;;4.47;;
4307;SDS011;2167;53.448;9.984;2023-03-01T14:56:52;7.73;;;3.63;;
4307;SDS011;2167;53.448;9.984;2023-03-01T14:59:21;5.80;;;4.10;;
4307;SDS011;2167;53.448;9.984;2023-03-01T15:01:48;8.80;;;4.27;;
4307;SDS011;2167;53.448;9.984;2023-03-01T15:04:16;8.13;;;4.63;;
4307;SDS011;2167;53.448;9.984;2023-03-01T15:06:43;4.13;;;3.73;;
4307;SDS011;2167;53.448;9.984;2023-03-01T15:09:12;5.40;;;3.93;;
4307;SDS011;2167;53.448;9.984;2023-03-01T15:11:40;10.23;;;4.07;;
4307;SDS011;2167;53.448;9.984;2023-03-01T15:17:51;9.97;;;3.30;;
4307;SDS011;2167;53.448;9.984;2023-03-01T15:19:59;8.97;;;4.50;;
4307;SDS011;2167;53.448;9.984;2023-03-01T15:22:27;4.43;;;3.73;;
4307;SDS011;2167;53.448;9.984;2023-03-01T15:24:53;6.67;;;3.80;;
4307;SDS011;2167;53.448;9.984;2023-03-01T15:27:21;4.70;;;3.07;;
4307;SDS011;2167;53.448;9.984;2023-03-01T15:29:49;8.35;;;4.80;;
4307;SDS011;2167;53.448;9.984;2023-03-01T15:32:29;7.47;;;4.30;;
4307;SDS011;2167;53.448;9.984;2023-03-01T15:34:55;8.03;;;4.27;;
4307;SDS011;2167;53.448;9.984;2023-03-01T15:37:48;8.87;;;3.73;;
4307;SDS011;2167;53.448;9.984;2023-03-01T15:40:21;8.13;;;3.20;;
4307;SDS011;2167;53.448;9.984;2023-03-01T15:42:56;6.03;;;4.10;;
4307;SDS011;2167;53.448;9.984;2023-03-01T15:45:30;6.50;;;3.20;;
4307;SDS011;2167;53.448;9.984;2023-03-01T15:48:20;9.30;;;4.30;;
4307;SDS011;2167;53.448;9.984;2023-03-01T15:50:57;5.20;;;3.10;;
4307;SDS011;2167;53.448;9.984;2023-03-01T15:53:24;6.63;;;3.97;;
4307;SDS011;2167;53.448;9.984;2023-03-01T15:55:52;7.33;;;3.10;;
4307;SDS011;2167;53.448;9.984;2023-03-01T15:58:22;6.10;;;3.27;;
4307;SDS011;2167;53.448;9.984;2023-03-01T16:00:49;7.40;;;3.97;;
4307;SDS011;2167;53.448;9.984;2023-03-01T16:03:20;6.77;;;3.10;;
4307;SDS011;2167;53.448;9.984;2023-03-01T16:05:47;5.57;;;4.05;;
4307;SDS011;2167;53.448;9.984;2023-03-01T16:08:14;7.43;;;4.47;;
4307;SDS011;2167;53.448;9.984;2023-03-01T16:10:40;6.73;;;3.93;;
4307;SDS011;2167;53.448;9.984;2023-03-01T16:13:10;6.17;;;4.17;;
4307;SDS011;2167;53.448;9.984;2023-03-01T16:15:36;10.63;;;4.23;;
4307;SDS011;2167;53.448;9.984;2023-03-01T16:18:03;4.53;;;3.40;;
4307;SDS011;2167;53.448;9.984;2023-03-01T16:20:30;4.23;;;3.17;;
4307;SDS011;2167;53.448;9.984;2023-03-01T16:23:00;5.85;;;3.58;;
4307;SDS011;2167;53.448;9.984;2023-03-01T16:25:28;10.60;;;3.90;;
4307;SDS011;2167;53.448;9.984;2023-03-01T16:27:54;8.20;;;3.53;;
4307;SDS011;2167;53.448;9.984;2023-03-01T16:30:21;6.80;;;3.63;;
4307;SDS011;2167;53.448;9.984;2023-03-01T16:32:48;10.30;;;4.00;;
4307;SDS011;2167;53.448;9.984;2023-03-01T16:35:15;6.03;;;3.57;;
4307;SDS011;2167;53.448;9.984;2023-03-01T16:37:43;6.30;;;4.20;;
4307;SDS011;2167;53.448;9.984;2023-03-01T16:40:17;8.00;;;4.00;;
4307;SDS011;2167;53.448;9.984;2023-03-01T16:42:47;8.00;;;5.60;;
4307;SDS011;2167;53.448;9.984;2023-03-01T16:45:14;9.83;;;4.40;;
4307;SDS011;2167;53.448;9.984;2023-03-01T16:47:40;5.67;;;4.10;;
4307;SDS011;2167;53.448;9.984;2023-03-01T16:50:06;8.10;;;4.30;;
4307;SDS011;2167;53.448;9.984;2023-03-01T16:52:33;9.10;;;4.70;;
4307;SDS011;2167;53.448;9.984;2023-03-01T16:54:58;11.13;;;4.77;;
4307;SDS011;2167;53.448;9.984;2023-03-01T16:57:24;12.10;;;4.60;;
4307;SDS011;2167;53.448;9.984;2023-03-01T16:59:52;11.07;;;5.03;;
4307;SDS011;2167;53.448;9.984;2023-03-01T17:02:18;9.20;;;5.30;;
4307;SDS011;2167;53.448;9.984;2023-03-01T17:04:44;7.20;;;4.90;;
4307;SDS011;2167;53.448;9.984;2023-03-01T17:07:10;10.10;;;5.27;;
4307;SDS011;2167;53.448;9.984;2023-03-01T17:09:36;5.27;;;4.37;;
4307;SDS011;2167;53.448;9.984;2023-03-01T17:12:03;6.97;;;4.00;;
4307;SDS011;2167;53.448;9.984;2023-03-01T17:14:29;12.57;;;6.40;;
4307;SDS011;2167;53.448;9.984;2023-03-01T17:16:55;10.03;;;6.20;;
4307;SDS011;2167;53.448;9.984;2023-03-01T17:19:20;13.17;;;6.23;;
4307;SDS011;2167;53.448;9.984;2023-03-01T17:21:46;11.43;;;5.73;;
4307;SDS011;2167;53.448;9.984;2023-03-01T17:24:12;7.80;;;5.43;;
4307;SDS011;2167;53.448;9.984;2023-03-01T17:26:38;10.53;;;5.40;;
4307;SDS011;2167;53.448;9.984;2023-03-01T17:29:04;8.77;;;4.60;;
4307;SDS011;2167;53.448;9.984;2023-03-01T17:31:31;10.57;;;5.13;;
4307;SDS011;2167;53.448;9.984;2023-03-01T17:33:57;7.70;;;4.40;;
4307;SDS011;2167;53.448;9.984;2023-03-01T17:36:23;8.63;;;4.80;;
4307;SDS011;2167;53.448;9.984;2023-03-01T17:38:49;6.63;;;4.17;;
4307;SDS011;2167;53.448;9.984;2023-03-01T17:41:16;8.50;;;4.90;;
4307;SDS011;2167;53.448;9.984;2023-03-01T17:43:43;11.80;;;6.30;;
4307;SDS011;2167;53.448;9.984;2023-03-01T17:46:09;11.07;;;6.83;;
4307;SDS011;2167;53.448;9.984;2023-03-01T17:48:35;9.07;;;5.27;;
4307;SDS011;2167;53.448;9.984;2023-03-01T17:51:06;8.77;;;5.10;;
4307;SDS011;2167;53.448;9.984;2023-03-01T17:53:33;10.03;;;4.90;;
4307;SDS011;2167;53.448;9.984;2023-03-01T17:56:00;16.33;;;6.83;;
4307;SDS011;2167;53.448;9.984;2023-03-01T17:58:27;9.90;;;5.30;;
4307;SDS011;2167;53.448;9.984;2023-03-01T18:00:54;16.97;;;7.67;;
4307;SDS011;2167;53.448;9.984;2023-03-01T18:03:19;7.33;;;4.60;;
4307;SDS011;2167;53.448;9.984;2023-03-01T18:05:46;6.57;;;4.60;;
4307;SDS011;2167;53.448;9.984;2023-03-01T18:08:12;11.20;;;4.90;;
4307;SDS011;2167;53.448;9.984;2023-03-01T18:10:38;5.60;;;3.77;;
4307;SDS011;2167;53.448;9.984;2023-03-01T18:13:04;11.97;;;3.93;;
4307;SDS011;2167;53.448;9.984;2023-03-01T18:15:30;11.33;;;5.13;;
4307;SDS011;2167;53.448;9.984;2023-03-01T18:17:56;9.77;;;5.07;;
4307;SDS011;2167;53.448;9.984;2023-03-01T18:20:21;8.70;;;5.57;;
4307;SDS011;2167;53.448;9.984;2023-03-01T18:22:47;6.70;;;4.70;;
4307;SDS011;2167;53.448;9.984;2023-03-01T18:25:14;7.10;;;4.33;;
4307;SDS011;2167;53.448;9.984;2023-03-01T18:27:40;7.63;;;4.23;;
4307;SDS011;2167;53.448;9.984;2023-03-01T18:30:06;8.33;;;4.10;;
4307;SDS011;2167;53.448;9.984;2023-03-01T18:32:33;10.57;;;4.93;;
4307;SDS011;2167;53.448;9.984;2023-03-01T18:34:59;6.93;;;4.10;;
4307;SDS011;2167;53.448;9.984;2023-03-01T18:37:25;9.77;;;4.00;;
4307;SDS011;2167;53.448;9.984;2023-03-01T18:39:51;7.60;;;4.67;;
4307;SDS011;2167;53.448;9.984;2023-03-01T18:42:17;5.70;;;3.77;;
4307;SDS011;2167;53.448;9.984;2023-03-01T18:44:44;7.03;;;4.33;;
4307;SDS011;2167;53.448;9.984;2023-03-01T18:47:10;6.07;;;4.10;;
4307;SDS011;2167;53.448;9.984;2023-03-01T18:49:36;7.70;;;4.17;;
4307;SDS011;2167;53.448;9.984;2023-03-01T18:52:02;7.63;;;4.90;;
4307;SDS011;2167;53.448;9.984;2023-03-01T18:54:28;4.87;;;3.93;;
4307;SDS011;2167;53.448;9.984;2023-03-01T18:56:53;4.70;;;4.00;;
4307;SDS011;2167;53.448;9.984;2023-03-01T18:59:19;7.33;;;4.83;;
4307;SDS011;2167;53.448;9.984;2023-03-01T19:01:44;9.52;;;5.60;;
4307;SDS011;2167;53.448;9.984;2023-03-01T19:04:10;9.70;;;5.80;;
4307;SDS011;2167;53.448;9.984;2023-03-01T19:06:36;13.20;;;5.30;;
4307;SDS011;2167;53.448;9.984;2023-03-01T19:09:03;9.33;;;5.30;;
4307;SDS011;2167;53.448;9.984;2023-03-01T19:11:29;11.07;;;6.03;;
4307;SDS011;2167;53.448;9.984;2023-03-01T19:13:57;10.70;;;4.97;;
4307;SDS011;2167;53.448;9.984;2023-03-01T19:16:24;10.80;;;4.90;;
4307;SDS011;2167;53.448;9.984;2023-03-01T19:18:58;10.60;;;5.80;;
4307;SDS011;2167;53.448;9.984;2023-03-01T19:21:26;8.60;;;6.10;;
4307;SDS011;2167;53.448;9.984;2023-03-01T19:23:53;6.93;;;4.67;;
4307;SDS011;2167;53.448;9.984;2023-03-01T19:26:21;9.97;;;6.87;;
4307;SDS011;2167;53.448;9.984;2023-03-01T19:28:49;9.30;;;5.07;;
4307;SDS011;2167;53.448;9.984;2023-03-01T19:31:16;8.27;;;5.10;;
4307;SDS011;2167;53.448;9.984;2023-03-01T19:33:43;12.73;;;6.33;;
4307;SDS011;2167;53.448;9.984;2023-03-01T19:36:09;12.10;;;7.07;;
4307;SDS011;2167;53.448;9.984;2023-03-01T19:38:37;14.10;;;7.60;;
4307;SDS011;2167;53.448;9.984;2023-03-01T19:41:06;15.20;;;7.00;;
4307;SDS011;2167;53.448;9.984;2023-03-01T19:43:35;15.30;;;6.10;;
4307;SDS011;2167;53.448;9.984;2023-03-01T19:46:01;10.33;;;6.10;;
4307;SDS011;2167;53.448;9.984;2023-03-01T19:48:27;15.47;;;7.90;;
4307;SDS011;2167;53.448;9.984;2023-03-01T19:50:53;14.53;;;7.20;;
4307;SDS011;2167;53.448;9.984;2023-03-01T19:53:19;10.70;;;7.20;;
4307;SDS011;2167;53.448;9.984;2023-03-01T19:55:45;13.80;;;7.47;;